Time;durP1;ratioP1;P1;durP2;ratioP2;P2;SDS_P1;SDS_P2;PMS_P1;PMS_P2;Temp;Humidity;BMP_temperature;BMP_pressure;BME280_temperature;BME280_humidity;BME280_pressure;Samples;Min_cycle;Max_cycle;Signal;HPM_P1;HPM_P2
2023/01/08 00:02:14;;;;;;;549.23;208.47;;;;;;;;;;4998934;28;20388;-55
2023/01/08 00:04:40;;;;;;;581.63;226.93;;;;;;;;;;4996147;28;20202;-55
2023/01/08 00:07:06;;;;;;;603.53;234.33;;;;;;;;;;4976640;28;20812;-56
2023/01/08 00:09:32;;;;;;;606.53;228.87;;;;;;;;;;4980034;28;20209;-56
2023/01/08 00:11:58;;;;;;;676.30;268.10;;;;;;;;;;4978583;28;20716;-56
2023/01/08 00:14:24;;;;;;;540.43;207.27;;;;;;;;;;4979685;28;20229;-55
2023/01/08 00:16:50;;;;;;;542.47;206.07;;;;;;;;;;4978511;28;20188;-55
2023/01/08 00:19:17;;;;;;;599.90;223.57;;;;;;;;;;4953986;28;20232;-55
2023/01/08 00:21:43;;;;;;;618.50;232.90;;;;;;;;;;4958058;28;20731;-55
2023/01/08 00:24:09;;;;;;;580.20;228.67;;;;;;;;;;4978879;28;20303;-56
2023/01/08 00:26:35;;;;;;;593.00;224.10;;;;;;;;;;4978069;28;20214;-55
2023/01/08 00:29:02;;;;;;;611.30;226.67;;;;;;;;;;4979230;28;20454;-55
2023/01/08 00:31:27;;;;;;;586.53;217.77;;;;;;;;;;4980542;28;20194;-55
2023/01/08 00:33:54;;;;;;;595.20;235.77;;;;;;;;;;4977447;28;20647;-55
2023/01/08 00:36:20;;;;;;;578.03;215.23;;;;;;;;;;4979141;28;20307;-56
2023/01/08 00:38:46;;;;;;;517.80;197.93;;;;;;;;;;4977283;28;20514;-57
2023/01/08 00:41:13;;;;;;;619.13;237.97;;;;;;;;;;4979495;28;20283;-56
2023/01/08 00:43:42;;;;;;;571.07;229.13;;;;;;;;;;4979027;28;20182;-56
2023/01/08 00:46:08;;;;;;;608.00;237.43;;;;;;;;;;4979138;28;20273;-56
2023/01/08 00:48:38;;;;;;;620.07;232.60;;;;;;;;;;4980330;28;20209;-55
2023/01/08 00:51:04;;;;;;;630.37;236.67;;;;;;;;;;4957287;28;20209;-55
2023/01/08 00:53:30;;;;;;;536.50;200.47;;;;;;;;;;4959836;28;20291;-56
2023/01/08 00:56:03;;;;;;;624.77;241.53;;;;;;;;;;4980216;28;20608;-56
2023/01/08 00:58:30;;;;;;;549.60;212.47;;;;;;;;;;4977974;28;20245;-55
2023/01/08 01:00:56;;;;;;;607.07;238.17;;;;;;;;;;4977725;28;20210;-56
2023/01/08 01:03:22;;;;;;;573.80;224.43;;;;;;;;;;4979047;28;20210;-56
2023/01/08 01:05:48;;;;;;;592.47;224.50;;;;;;;;;;4959108;28;20248;-56
2023/01/08 01:08:14;;;;;;;537.00;215.57;;;;;;;;;;4977620;28;20244;-55
2023/01/08 01:10:41;;;;;;;503.07;194.30;;;;;;;;;;4978085;28;20185;-56
2023/01/08 01:13:07;;;;;;;525.43;207.13;;;;;;;;;;4979364;28;20205;-55
2023/01/08 01:15:34;;;;;;;538.37;214.27;;;;;;;;;;4979481;28;20691;-56
2023/01/08 01:18:02;;;;;;;576.33;214.67;;;;;;;;;;4977331;28;20283;-58
2023/01/08 01:20:28;;;;;;;560.37;210.77;;;;;;;;;;4971057;28;20221;-56
2023/01/08 01:22:54;;;;;;;590.43;229.03;;;;;;;;;;4978312;28;20221;-56
2023/01/08 01:25:21;;;;;;;527.93;198.10;;;;;;;;;;4977063;28;20293;-55
2023/01/08 01:27:49;;;;;;;565.83;223.90;;;;;;;;;;4986770;28;20644;-55
2023/01/08 01:30:15;;;;;;;596.30;233.60;;;;;;;;;;4979016;28;20306;-56
2023/01/08 01:32:41;;;;;;;598.57;240.70;;;;;;;;;;4977722;28;20269;-57
2023/01/08 01:35:07;;;;;;;534.17;215.40;;;;;;;;;;4961034;28;20218;-56
2023/01/08 01:37:33;;;;;;;532.30;201.87;;;;;;;;;;4958444;28;20212;-56
2023/01/08 01:40:00;;;;;;;586.60;235.23;;;;;;;;;;4996466;28;20185;-56
2023/01/08 01:42:42;;;;;;;509.60;194.67;;;;;;;;;;4979211;28;20226;-56
2023/01/08 01:45:18;;;;;;;585.50;214.67;;;;;;;;;;4980135;28;20221;-55
2023/01/08 01:47:47;;;;;;;529.97;196.97;;;;;;;;;;4975637;28;20275;-56
2023/01/08 01:50:26;;;;;;;520.03;197.97;;;;;;;;;;4978150;28;20213;-56
2023/01/08 01:52:59;;;;;;;563.37;215.97;;;;;;;;;;4979213;28;20280;-56
2023/01/08 01:55:25;;;;;;;533.93;216.80;;;;;;;;;;4978063;28;20509;-56
2023/01/08 01:57:54;;;;;;;530.07;204.93;;;;;;;;;;4975731;28;20276;-56
2023/01/08 02:00:22;;;;;;;550.67;220.33;;;;;;;;;;4977199;28;20284;-57
2023/01/08 02:02:48;;;;;;;508.47;199.17;;;;;;;;;;4977904;28;20486;-55
2023/01/08 02:05:14;;;;;;;519.20;204.47;;;;;;;;;;4975398;28;20256;-56
2023/01/08 02:07:47;;;;;;;547.07;209.60;;;;;;;;;;4978711;28;20180;-55
2023/01/08 02:10:17;;;;;;;577.93;222.87;;;;;;;;;;4966924;28;20193;-55
2023/01/08 02:12:46;;;;;;;538.73;201.63;;;;;;;;;;4976731;28;20213;-56
2023/01/08 02:15:15;;;;;;;567.40;217.17;;;;;;;;;;4975695;28;20505;-56
2023/01/08 02:17:45;;;;;;;551.33;213.63;;;;;;;;;;4976253;28;20743;-55
2023/01/08 02:20:14;;;;;;;583.97;225.57;;;;;;;;;;4975568;28;20961;-55
2023/01/08 02:22:46;;;;;;;547.70;205.90;;;;;;;;;;4976595;28;20296;-56
2023/01/08 02:25:22;;;;;;;539.03;215.43;;;;;;;;;;4978042;28;20209;-56
2023/01/08 02:27:50;;;;;;;560.33;214.10;;;;;;;;;;4995520;28;20382;-57
2023/01/08 02:30:16;;;;;;;467.87;185.57;;;;;;;;;;4997368;28;20364;-57
2023/01/08 02:32:43;;;;;;;577.40;235.23;;;;;;;;;;4994187;28;20263;-58
2023/01/08 02:35:09;;;;;;;580.63;213.53;;;;;;;;;;4986958;28;20778;-57
2023/01/08 02:37:36;;;;;;;578.40;225.83;;;;;;;;;;4997574;28;20177;-57
2023/01/08 02:40:02;;;;;;;517.40;197.53;;;;;;;;;;4997718;28;20756;-58
2023/01/08 02:42:31;;;;;;;550.40;205.67;;;;;;;;;;4996732;28;20404;-58
2023/01/08 02:45:07;;;;;;;580.77;228.30;;;;;;;;;;4998141;28;20217;-57
2023/01/08 02:47:39;;;;;;;560.43;219.00;;;;;;;;;;4996531;28;20305;-57
2023/01/08 02:50:09;;;;;;;539.47;204.47;;;;;;;;;;4996187;28;20658;-55
2023/01/08 02:52:37;;;;;;;572.47;227.67;;;;;;;;;;4994811;28;20196;-56
2023/01/08 02:55:04;;;;;;;541.77;207.00;;;;;;;;;;4993540;28;20205;-56
2023/01/08 02:57:32;;;;;;;630.80;250.27;;;;;;;;;;4993741;28;20221;-56
2023/01/08 02:59:58;;;;;;;539.10;210.57;;;;;;;;;;4990191;28;20679;-56
2023/01/08 03:02:25;;;;;;;528.03;200.33;;;;;;;;;;4997867;28;20227;-55
2023/01/08 03:04:54;;;;;;;529.70;196.23;;;;;;;;;;4999304;28;20217;-56
2023/01/08 03:07:20;;;;;;;520.03;193.10;;;;;;;;;;4996201;28;20186;-56
2023/01/08 03:09:49;;;;;;;613.30;227.00;;;;;;;;;;4996726;28;20216;-56
2023/01/08 03:12:23;;;;;;;552.07;205.70;;;;;;;;;;4980842;28;20588;-57
2023/01/08 03:14:55;;;;;;;622.33;231.13;;;;;;;;;;4994121;28;20270;-56
2023/01/08 03:17:30;;;;;;;544.80;213.27;;;;;;;;;;4999274;28;20222;-57
2023/01/08 03:20:02;;;;;;;620.10;235.87;;;;;;;;;;4995415;28;20296;-57
2023/01/08 03:22:30;;;;;;;582.73;208.77;;;;;;;;;;5002487;28;20332;-56
2023/01/08 03:24:58;;;;;;;656.30;242.40;;;;;;;;;;4992695;28;20271;-57
2023/01/08 03:27:26;;;;;;;507.70;199.37;;;;;;;;;;4983100;28;20758;-57
2023/01/08 03:29:53;;;;;;;615.73;228.10;;;;;;;;;;4978479;28;20249;-57
2023/01/08 03:32:21;;;;;;;567.47;215.20;;;;;;;;;;4977984;28;20696;-57
2023/01/08 03:34:48;;;;;;;635.90;233.57;;;;;;;;;;4978938;28;20298;-56
2023/01/08 03:37:15;;;;;;;563.33;210.53;;;;;;;;;;4955027;28;20194;-57
2023/01/08 03:39:47;;;;;;;587.37;215.33;;;;;;;;;;4980334;28;20268;-55
2023/01/08 03:42:14;;;;;;;583.50;219.17;;;;;;;;;;4976802;28;20281;-56
2023/01/08 03:44:40;;;;;;;560.83;216.10;;;;;;;;;;4978581;28;20217;-56
2023/01/08 03:47:08;;;;;;;642.87;251.90;;;;;;;;;;4978567;28;20213;-55
2023/01/08 03:49:34;;;;;;;625.47;232.37;;;;;;;;;;4976526;28;20633;-56
2023/01/08 03:52:00;;;;;;;657.07;244.23;;;;;;;;;;4978269;28;20367;-55
2023/01/08 03:54:30;;;;;;;611.07;220.83;;;;;;;;;;4977141;28;20300;-55
2023/01/08 03:56:56;;;;;;;647.60;230.03;;;;;;;;;;4978807;28;20209;-56
2023/01/08 03:59:22;;;;;;;656.30;249.60;;;;;;;;;;4978448;28;20213;-55
2023/01/08 04:01:49;;;;;;;589.10;229.37;;;;;;;;;;4978866;28;20723;-55
2023/01/08 04:04:15;;;;;;;561.77;206.07;;;;;;;;;;4978861;28;20692;-56
2023/01/08 04:06:42;;;;;;;584.03;218.50;;;;;;;;;;4952924;28;20318;-57
2023/01/08 04:09:08;;;;;;;663.10;253.77;;;;;;;;;;4953795;28;20752;-55
2023/01/08 04:11:35;;;;;;;623.87;225.23;;;;;;;;;;4978582;28;20213;-55
2023/01/08 04:14:01;;;;;;;636.53;239.53;;;;;;;;;;4957766;28;20249;-56
2023/01/08 04:16:27;;;;;;;607.67;231.10;;;;;;;;;;4957504;28;20260;-56
2023/01/08 04:18:53;;;;;;;600.30;215.70;;;;;;;;;;4978105;28;20224;-55
2023/01/08 04:21:19;;;;;;;572.50;220.67;;;;;;;;;;4950709;28;20240;-56
2023/01/08 04:23:45;;;;;;;623.20;235.77;;;;;;;;;;4957860;28;20637;-56
2023/01/08 04:26:11;;;;;;;690.77;260.87;;;;;;;;;;4971077;28;20232;-56
2023/01/08 04:28:37;;;;;;;589.10;230.63;;;;;;;;;;4978369;28;20576;-55
2023/01/08 04:31:06;;;;;;;646.60;240.27;;;;;;;;;;4979221;28;20417;-56
2023/01/08 04:33:33;;;;;;;609.73;228.20;;;;;;;;;;4978530;28;20636;-55
2023/01/08 04:35:59;;;;;;;713.00;256.23;;;;;;;;;;4978856;28;20291;-56
2023/01/08 04:38:25;;;;;;;607.30;223.87;;;;;;;;;;4976870;28;20253;-55
2023/01/08 04:43:25;;;;;;;618.33;238.07;;;;;;;;;;5073584;27;20563;-54
2023/01/08 04:45:56;;;;;;;575.00;221.23;;;;;;;;;;5033506;28;20207;-54
2023/01/08 04:48:22;;;;;;;601.87;222.23;;;;;;;;;;5029973;28;20202;-54
2023/01/08 04:50:50;;;;;;;626.37;249.37;;;;;;;;;;5030992;28;20216;-55
2023/01/08 04:53:16;;;;;;;649.40;256.60;;;;;;;;;;5031745;28;20520;-54
2023/01/08 04:55:42;;;;;;;551.23;202.77;;;;;;;;;;5033775;28;20184;-55
2023/01/08 04:58:08;;;;;;;587.30;223.07;;;;;;;;;;5033773;28;20493;-55
2023/01/08 05:00:34;;;;;;;557.83;213.10;;;;;;;;;;5035120;28;20721;-55
2023/01/08 05:03:00;;;;;;;597.90;226.93;;;;;;;;;;5033928;28;20243;-55
2023/01/08 05:05:26;;;;;;;568.20;215.97;;;;;;;;;;5033799;28;20246;-55
2023/01/08 05:07:52;;;;;;;640.90;245.57;;;;;;;;;;5032980;28;20271;-54
2023/01/08 05:10:18;;;;;;;543.23;205.30;;;;;;;;;;5032484;28;20266;-54
2023/01/08 05:12:44;;;;;;;556.30;212.23;;;;;;;;;;5032706;28;20639;-55
2023/01/08 05:15:10;;;;;;;588.10;221.97;;;;;;;;;;5031247;28;20350;-54
2023/01/08 05:17:36;;;;;;;578.77;211.80;;;;;;;;;;5031936;28;20211;-55
2023/01/08 05:20:02;;;;;;;577.70;225.23;;;;;;;;;;5030611;28;20297;-54
2023/01/08 05:22:28;;;;;;;519.20;203.17;;;;;;;;;;5031233;28;20428;-55
2023/01/08 05:24:54;;;;;;;594.17;234.73;;;;;;;;;;5031622;28;20226;-55
2023/01/08 05:27:21;;;;;;;504.60;205.97;;;;;;;;;;5034935;28;20226;-55
2023/01/08 05:29:47;;;;;;;548.13;222.80;;;;;;;;;;5033674;28;20235;-55
2023/01/08 05:32:14;;;;;;;576.50;226.20;;;;;;;;;;5032323;28;20749;-55
2023/01/08 05:34:40;;;;;;;628.20;279.57;;;;;;;;;;4993793;23;20319;-48
2023/01/08 05:37:06;;;;;;;604.80;278.23;;;;;;;;;;4967247;28;20250;-48
2023/01/08 05:39:32;;;;;;;634.70;295.20;;;;;;;;;;4961377;28;20221;-48
2023/01/08 05:41:58;;;;;;;621.97;284.17;;;;;;;;;;4976129;28;20432;-47
2023/01/08 05:44:24;;;;;;;550.63;244.20;;;;;;;;;;4973662;28;20468;-48
2023/01/08 05:46:52;;;;;;;591.83;259.33;;;;;;;;;;4987688;28;20221;-48
2023/01/08 05:49:18;;;;;;;561.90;250.30;;;;;;;;;;4984925;28;20727;-48
2023/01/08 05:51:45;;;;;;;559.93;239.80;;;;;;;;;;4971695;28;20232;-48
2023/01/08 05:54:10;;;;;;;533.23;238.50;;;;;;;;;;4971917;28;20205;-47
2023/01/08 05:56:37;;;;;;;607.77;267.03;;;;;;;;;;4969926;28;20216;-48
2023/01/08 05:59:03;;;;;;;580.60;254.60;;;;;;;;;;4972390;28;20217;-48
2023/01/08 06:01:29;;;;;;;586.73;270.50;;;;;;;;;;4951336;28;20209;-48
2023/01/08 06:03:55;;;;;;;667.07;297.97;;;;;;;;;;4962093;28;20632;-47
2023/01/08 06:06:21;;;;;;;572.37;263.13;;;;;;;;;;4948692;28;20355;-47
2023/01/08 06:08:48;;;;;;;592.50;270.83;;;;;;;;;;4955955;28;20221;-48
2023/01/08 06:11:14;;;;;;;559.47;243.10;;;;;;;;;;4945980;28;20322;-48
2023/01/08 06:13:41;;;;;;;589.63;261.10;;;;;;;;;;4961999;28;20258;-48
2023/01/08 06:16:07;;;;;;;644.20;284.97;;;;;;;;;;4956935;28;20623;-48
2023/01/08 06:18:34;;;;;;;578.30;244.63;;;;;;;;;;4960363;28;20290;-48
2023/01/08 06:21:01;;;;;;;640.03;274.43;;;;;;;;;;4960529;28;20695;-47
2023/01/08 06:23:30;;;;;;;551.27;246.47;;;;;;;;;;4959230;28;20637;-48
2023/01/08 06:25:57;;;;;;;603.00;263.57;;;;;;;;;;4946515;28;20977;-48
2023/01/08 06:28:23;;;;;;;675.70;295.73;;;;;;;;;;4954820;28;20341;-48
2023/01/08 06:30:49;;;;;;;574.63;246.97;;;;;;;;;;4964987;28;20217;-48
2023/01/08 06:33:15;;;;;;;671.90;303.47;;;;;;;;;;4954207;28;20252;-48
2023/01/08 06:35:41;;;;;;;599.53;266.50;;;;;;;;;;4949937;28;20704;-48
2023/01/08 06:38:08;;;;;;;646.87;291.17;;;;;;;;;;4952871;28;20518;-48
2023/01/08 06:40:36;;;;;;;611.43;256.53;;;;;;;;;;4966188;28;20185;-48
2023/01/08 06:43:04;;;;;;;571.23;243.00;;;;;;;;;;4971495;28;20212;-48
2023/01/08 06:45:30;;;;;;;559.57;244.80;;;;;;;;;;4963791;28;20213;-48
2023/01/08 06:47:59;;;;;;;604.93;257.67;;;;;;;;;;4967378;28;20640;-48
2023/01/08 06:50:25;;;;;;;575.67;238.63;;;;;;;;;;4972661;28;20267;-47
2023/01/08 06:52:53;;;;;;;598.07;258.23;;;;;;;;;;4961342;28;20392;-48
2023/01/08 06:55:19;;;;;;;644.23;271.87;;;;;;;;;;4956942;28;20190;-48
2023/01/08 06:57:45;;;;;;;619.87;254.20;;;;;;;;;;4965431;28;20209;-48
2023/01/08 07:00:11;;;;;;;613.43;257.77;;;;;;;;;;4968397;28;20299;-48
2023/01/08 07:02:38;;;;;;;639.80;270.30;;;;;;;;;;4969825;28;20210;-48
2023/01/08 07:05:04;;;;;;;626.03;266.33;;;;;;;;;;4968554;28;20375;-48
2023/01/08 07:07:30;;;;;;;645.07;281.80;;;;;;;;;;4969087;28;20231;-47
2023/01/08 07:09:56;;;;;;;621.20;269.93;;;;;;;;;;4962761;28;20384;-47
2023/01/08 07:12:22;;;;;;;646.20;288.80;;;;;;;;;;4947264;28;20314;-47
2023/01/08 07:14:48;;;;;;;646.77;290.17;;;;;;;;;;4952411;28;20222;-50
2023/01/08 07:17:15;;;;;;;609.53;262.63;;;;;;;;;;4958845;28;21085;-48
2023/01/08 07:19:42;;;;;;;681.17;299.67;;;;;;;;;;4952056;28;20205;-48
2023/01/08 07:22:08;;;;;;;669.00;283.53;;;;;;;;;;4955132;28;20201;-50
2023/01/08 07:24:34;;;;;;;657.23;295.40;;;;;;;;;;4967961;28;20214;-50
2023/01/08 07:27:00;;;;;;;690.37;305.63;;;;;;;;;;4956543;28;20221;-49
2023/01/08 07:29:26;;;;;;;690.87;308.70;;;;;;;;;;4947659;28;20247;-49
2023/01/08 07:31:53;;;;;;;731.20;321.67;;;;;;;;;;4960984;28;20216;-49
2023/01/08 07:34:19;;;;;;;720.53;332.63;;;;;;;;;;4944943;28;20334;-48
2023/01/08 07:36:45;;;;;;;613.43;273.03;;;;;;;;;;4952870;28;20225;-50
2023/01/08 07:39:11;;;;;;;602.87;265.17;;;;;;;;;;4946135;28;21204;-49
2023/01/08 07:41:37;;;;;;;587.83;257.23;;;;;;;;;;4963167;28;20300;-50
2023/01/08 07:44:03;;;;;;;724.67;330.77;;;;;;;;;;4943638;28;20233;-49
2023/01/08 07:46:29;;;;;;;670.30;298.33;;;;;;;;;;4912592;28;20796;-49
2023/01/08 07:48:56;;;;;;;743.30;333.33;;;;;;;;;;4935383;28;20221;-48
2023/01/08 07:51:22;;;;;;;589.23;255.07;;;;;;;;;;4939045;28;21065;-49
2023/01/08 07:53:50;;;;;;;677.40;301.50;;;;;;;;;;4945931;28;20213;-48
2023/01/08 07:56:16;;;;;;;879.87;431.50;;;;;;;;;;4943819;28;20380;-53
2023/01/08 07:58:42;;;;;;;678.90;303.87;;;;;;;;;;4951194;28;20849;-51
2023/01/08 08:01:10;;;;;;;721.33;330.60;;;;;;;;;;4931700;28;20801;-50
2023/01/08 08:03:37;;;;;;;786.90;358.20;;;;;;;;;;4933426;28;20230;-49
2023/01/08 08:06:03;;;;;;;680.80;301.30;;;;;;;;;;4950984;28;20284;-50
2023/01/08 08:08:29;;;;;;;681.63;305.00;;;;;;;;;;4952102;28;20707;-49
2023/01/08 08:10:56;;;;;;;746.40;333.10;;;;;;;;;;4948665;28;20224;-49
2023/01/08 08:13:22;;;;;;;671.47;300.47;;;;;;;;;;4952212;28;20270;-49
2023/01/08 08:15:48;;;;;;;801.40;371.83;;;;;;;;;;4947117;28;20232;-50
2023/01/08 08:18:14;;;;;;;694.47;318.93;;;;;;;;;;4957839;28;20237;-49
2023/01/08 08:20:40;;;;;;;575.10;252.50;;;;;;;;;;4944677;28;20274;-49
2023/01/08 08:23:08;;;;;;;729.53;332.20;;;;;;;;;;4936378;28;20256;-50
2023/01/08 08:25:34;;;;;;;677.20;301.30;;;;;;;;;;4954855;28;20605;-50
2023/01/08 08:28:01;;;;;;;691.10;318.33;;;;;;;;;;4941879;28;20288;-49
2023/01/08 08:30:27;;;;;;;706.03;330.57;;;;;;;;;;4947142;28;20728;-50
2023/01/08 08:32:54;;;;;;;735.30;324.50;;;;;;;;;;4954441;28;20528;-50
2023/01/08 08:35:20;;;;;;;623.27;278.53;;;;;;;;;;4942135;28;20236;-49
2023/01/08 08:37:47;;;;;;;728.53;332.73;;;;;;;;;;4937331;28;22457;-49
2023/01/08 08:40:13;;;;;;;566.37;253.20;;;;;;;;;;4944228;28;20182;-50
2023/01/08 08:42:39;;;;;;;665.40;301.77;;;;;;;;;;4948586;28;20248;-49
2023/01/08 08:45:05;;;;;;;745.30;332.77;;;;;;;;;;4954427;28;20711;-50
2023/01/08 08:47:31;;;;;;;696.00;319.80;;;;;;;;;;4942518;28;20536;-50
2023/01/08 08:49:58;;;;;;;729.00;334.50;;;;;;;;;;4943882;28;20221;-50
2023/01/08 08:52:24;;;;;;;670.97;306.37;;;;;;;;;;4941961;28;20663;-50
2023/01/08 08:54:50;;;;;;;733.93;326.43;;;;;;;;;;4951563;28;20213;-49
2023/01/08 08:57:16;;;;;;;778.53;357.87;;;;;;;;;;4941806;28;20295;-48
2023/01/08 08:59:42;;;;;;;698.20;314.50;;;;;;;;;;4942575;28;20609;-50
2023/01/08 09:02:09;;;;;;;697.80;322.07;;;;;;;;;;4938954;28;20268;-48
2023/01/08 09:04:35;;;;;;;665.97;306.20;;;;;;;;;;4947155;28;20851;-47
2023/01/08 09:07:01;;;;;;;786.63;355.47;;;;;;;;;;4936514;28;20258;-47
2023/01/08 09:09:28;;;;;;;761.13;355.67;;;;;;;;;;4948315;28;20570;-51
2023/01/08 09:11:54;;;;;;;741.03;332.57;;;;;;;;;;4945838;28;20552;-48
2023/01/08 09:14:20;;;;;;;719.53;331.63;;;;;;;;;;4940554;28;20223;-48
2023/01/08 09:16:47;;;;;;;669.13;310.33;;;;;;;;;;4942931;28;20201;-48
2023/01/08 09:19:13;;;;;;;673.80;315.73;;;;;;;;;;4949592;28;20178;-48
2023/01/08 09:21:39;;;;;;;713.97;316.93;;;;;;;;;;4934244;28;20225;-49
2023/01/08 09:24:06;;;;;;;715.80;327.70;;;;;;;;;;4941392;28;20480;-48
2023/01/08 09:26:32;;;;;;;731.37;320.17;;;;;;;;;;4931452;28;20230;-48
2023/01/08 09:28:58;;;;;;;640.67;286.83;;;;;;;;;;4950722;28;20346;-50
2023/01/08 09:31:25;;;;;;;651.90;291.03;;;;;;;;;;4962353;28;20259;-49
2023/01/08 09:33:51;;;;;;;670.37;298.80;;;;;;;;;;4953014;28;20500;-50
2023/01/08 09:36:17;;;;;;;366.23;176.40;;;;;;;;;;4977060;28;20711;-50
2023/01/08 09:38:44;;;;;;;473.93;228.63;;;;;;;;;;4957745;28;20403;-50
2023/01/08 09:41:11;;;;;;;425.03;203.57;;;;;;;;;;4966042;28;20488;-50
2023/01/08 09:43:38;;;;;;;641.93;294.40;;;;;;;;;;4964309;28;20209;-51
2023/01/08 09:46:05;;;;;;;667.47;290.93;;;;;;;;;;4972754;28;20555;-50
2023/01/08 09:48:34;;;;;;;583.83;249.50;;;;;;;;;;4966236;28;20266;-48
2023/01/08 09:51:00;;;;;;;740.57;342.33;;;;;;;;;;4953533;28;20276;-49
2023/01/08 09:53:26;;;;;;;684.00;298.87;;;;;;;;;;4969380;28;20318;-49
2023/01/08 09:55:58;;;;;;;681.37;308.53;;;;;;;;;;4967124;28;20267;-49
2023/01/08 09:58:24;;;;;;;696.23;327.13;;;;;;;;;;4963006;28;20193;-49
2023/01/08 10:00:51;;;;;;;824.40;413.20;;;;;;;;;;4949680;28;20475;-49
2023/01/08 10:03:17;;;;;;;666.30;303.77;;;;;;;;;;4949616;28;20236;-48
2023/01/08 10:05:43;;;;;;;694.57;323.67;;;;;;;;;;4952659;28;20581;-49
2023/01/08 10:08:13;;;;;;;649.50;295.13;;;;;;;;;;4969238;28;20237;-48
2023/01/08 10:10:39;;;;;;;618.53;271.07;;;;;;;;;;4974986;28;20177;-50
2023/01/08 10:13:06;;;;;;;628.37;284.30;;;;;;;;;;4973989;28;20202;-50
2023/01/08 10:15:32;;;;;;;625.03;279.23;;;;;;;;;;4970990;28;20225;-50
2023/01/08 10:18:05;;;;;;;647.17;295.63;;;;;;;;;;4965847;28;20209;-51
2023/01/08 10:20:32;;;;;;;574.30;263.03;;;;;;;;;;4963310;28;20782;-50
2023/01/08 10:23:09;;;;;;;703.60;317.30;;;;;;;;;;4959750;28;20225;-49
2023/01/08 10:25:46;;;;;;;690.40;319.00;;;;;;;;;;4960922;28;20656;-49
2023/01/08 10:28:18;;;;;;;694.23;319.93;;;;;;;;;;4950820;28;20553;-50
2023/01/08 10:30:44;;;;;;;562.13;254.83;;;;;;;;;;4969695;28;20244;-48
2023/01/08 10:33:17;;;;;;;609.47;269.40;;;;;;;;;;4971029;28;20235;-50
2023/01/08 10:35:51;;;;;;;652.97;294.40;;;;;;;;;;4972417;28;20934;-51
2023/01/08 10:38:25;;;;;;;722.03;315.70;;;;;;;;;;4973286;28;20225;-49
2023/01/08 10:40:51;;;;;;;343.03;154.60;;;;;;;;;;4962894;28;20279;-48
2023/01/08 10:43:17;;;;;;;623.37;303.97;;;;;;;;;;4968339;28;21162;-49
2023/01/08 10:45:45;;;;;;;315.47;154.60;;;;;;;;;;4954493;28;20222;-49
2023/01/08 10:48:17;;;;;;;725.60;327.10;;;;;;;;;;4975134;28;20829;-49
2023/01/08 10:50:43;;;;;;;602.50;270.03;;;;;;;;;;4969895;28;20221;-50
2023/01/08 10:53:27;;;;;;;669.80;297.57;;;;;;;;;;4978875;28;20473;-50
2023/01/08 10:56:01;;;;;;;616.90;262.20;;;;;;;;;;4975976;28;20309;-50
2023/01/08 10:58:28;;;;;;;730.77;320.93;;;;;;;;;;4973225;28;20230;-49
2023/01/08 11:00:56;;;;;;;658.60;288.63;;;;;;;;;;4972467;28;20379;-50
2023/01/08 11:03:32;;;;;;;702.20;302.77;;;;;;;;;;4971219;28;20222;-50
2023/01/08 11:05:58;;;;;;;727.13;327.87;;;;;;;;;;4975411;28;20312;-48
2023/01/08 11:08:24;;;;;;;611.57;277.07;;;;;;;;;;4968450;28;20530;-47
2023/01/08 11:10:58;;;;;;;643.47;285.73;;;;;;;;;;4968581;28;20834;-50
2023/01/08 11:13:24;;;;;;;690.13;310.23;;;;;;;;;;4969508;28;20568;-50
2023/01/08 11:16:16;;;;;;;686.47;311.20;;;;;;;;;;4966362;28;20221;-50
2023/01/08 11:18:49;;;;;;;588.23;272.23;;;;;;;;;;4966882;28;20924;-49
2023/01/08 11:21:20;;;;;;;699.07;312.63;;;;;;;;;;4962707;28;20260;-51
2023/01/08 11:23:47;;;;;;;675.53;314.73;;;;;;;;;;4946986;28;20229;-49
2023/01/08 11:26:18;;;;;;;684.37;327.00;;;;;;;;;;4961469;28;20219;-50
2023/01/08 11:28:52;;;;;;;676.53;310.33;;;;;;;;;;4966573;28;20287;-50
2023/01/08 11:31:23;;;;;;;605.60;278.63;;;;;;;;;;4960034;28;20279;-49
2023/01/08 11:33:53;;;;;;;663.27;309.43;;;;;;;;;;4967249;28;20436;-48
2023/01/08 11:36:22;;;;;;;645.87;307.83;;;;;;;;;;4962716;28;20222;-49
2023/01/08 11:38:48;;;;;;;735.13;336.23;;;;;;;;;;4959708;28;20715;-48
2023/01/08 11:41:20;;;;;;;667.17;304.10;;;;;;;;;;4951074;28;20349;-47
2023/01/08 11:43:52;;;;;;;693.13;321.60;;;;;;;;;;4960759;28;20363;-50
2023/01/08 11:46:41;;;;;;;658.83;294.90;;;;;;;;;;4970035;28;20189;-49
2023/01/08 11:49:10;;;;;;;636.60;289.37;;;;;;;;;;4963077;28;20285;-48
2023/01/08 11:51:42;;;;;;;620.37;282.33;;;;;;;;;;4963905;28;20225;-50
2023/01/08 11:54:20;;;;;;;616.23;286.90;;;;;;;;;;4962968;28;20669;-48
2023/01/08 11:56:55;;;;;;;635.50;296.13;;;;;;;;;;4971327;28;20217;-50
2023/01/08 11:59:40;;;;;;;635.07;292.00;;;;;;;;;;4965966;28;20271;-49
2023/01/08 12:02:07;;;;;;;694.70;322.33;;;;;;;;;;4967756;28;20300;-49
2023/01/08 12:04:48;;;;;;;614.30;285.30;;;;;;;;;;4968554;28;20660;-49
2023/01/08 12:07:17;;;;;;;692.33;313.47;;;;;;;;;;4961620;28;20274;-51
2023/01/08 12:09:45;;;;;;;661.60;307.20;;;;;;;;;;4965773;28;20603;-50
2023/01/08 12:12:18;;;;;;;696.63;315.10;;;;;;;;;;4966529;28;20217;-48
2023/01/08 12:14:59;;;;;;;638.83;297.90;;;;;;;;;;4965325;28;20210;-50
2023/01/08 12:17:37;;;;;;;644.00;296.37;;;;;;;;;;4966962;28;20327;-48
2023/01/08 12:20:10;;;;;;;613.17;285.87;;;;;;;;;;4967850;28;20300;-50
2023/01/08 12:22:55;;;;;;;699.70;322.60;;;;;;;;;;4960247;28;20515;-49
2023/01/08 12:25:25;;;;;;;695.50;323.57;;;;;;;;;;4965457;28;21454;-49
2023/01/08 12:27:57;;;;;;;630.80;290.03;;;;;;;;;;4966320;28;20737;-48
2023/01/08 12:30:38;;;;;;;694.93;313.10;;;;;;;;;;4964886;28;20241;-50
2023/01/08 12:33:09;;;;;;;602.20;269.20;;;;;;;;;;4964080;28;20220;-48
2023/01/08 12:35:40;;;;;;;661.33;309.03;;;;;;;;;;4958382;28;20228;-49
2023/01/08 12:38:19;;;;;;;703.87;319.17;;;;;;;;;;4960786;28;20372;-49
2023/01/08 12:40:48;;;;;;;685.20;311.43;;;;;;;;;;4965107;28;20284;-50
2023/01/08 12:43:18;;;;;;;635.90;286.53;;;;;;;;;;4972811;28;20649;-48
2023/01/08 12:45:45;;;;;;;632.83;287.03;;;;;;;;;;4963701;28;20406;-50
2023/01/08 12:48:16;;;;;;;622.17;291.97;;;;;;;;;;4964796;28;20429;-50
2023/01/08 12:50:57;;;;;;;651.57;292.70;;;;;;;;;;4964150;28;20216;-49
2023/01/08 12:53:35;;;;;;;682.57;319.10;;;;;;;;;;4963781;28;21250;-50
2023/01/08 12:56:02;;;;;;;668.97;303.07;;;;;;;;;;4969537;28;20371;-48
2023/01/08 12:58:33;;;;;;;640.53;298.23;;;;;;;;;;4966911;28;20193;-50
2023/01/08 13:01:06;;;;;;;714.97;332.60;;;;;;;;;;4963827;28;20767;-49
2023/01/08 13:03:32;;;;;;;675.97;313.60;;;;;;;;;;4966718;28;20403;-49
2023/01/08 13:06:11;;;;;;;656.00;309.93;;;;;;;;;;4963828;28;20225;-50
2023/01/08 13:08:38;;;;;;;611.83;281.97;;;;;;;;;;4965821;28;20466;-50
2023/01/08 13:11:05;;;;;;;692.37;314.97;;;;;;;;;;4969981;28;20233;-50
2023/01/08 13:13:35;;;;;;;681.00;305.60;;;;;;;;;;4970131;28;20294;-48
2023/01/08 13:16:05;;;;;;;695.70;319.80;;;;;;;;;;4974575;28;20223;-51
2023/01/08 13:18:31;;;;;;;730.40;342.20;;;;;;;;;;4968030;28;20213;-49
2023/01/08 13:20:58;;;;;;;607.37;286.20;;;;;;;;;;4971843;28;20696;-51
2023/01/08 13:23:26;;;;;;;670.30;311.67;;;;;;;;;;4966599;28;20469;-51
2023/01/08 13:25:53;;;;;;;631.73;299.77;;;;;;;;;;4969600;28;20181;-51
2023/01/08 13:28:34;;;;;;;637.37;306.03;;;;;;;;;;4975857;28;20265;-49
2023/01/08 13:31:19;;;;;;;672.13;309.27;;;;;;;;;;4966183;28;20202;-51
2023/01/08 13:33:47;;;;;;;682.60;314.27;;;;;;;;;;4965368;28;20724;-51
2023/01/08 13:36:15;;;;;;;693.13;318.60;;;;;;;;;;4967925;28;20225;-49
2023/01/08 13:38:41;;;;;;;666.23;305.43;;;;;;;;;;4967183;28;20269;-49
2023/01/08 13:41:34;;;;;;;617.07;286.97;;;;;;;;;;4965349;28;20217;-50
2023/01/08 13:44:03;;;;;;;637.80;298.63;;;;;;;;;;4960423;28;20232;-50
2023/01/08 13:46:29;;;;;;;662.70;311.53;;;;;;;;;;4974492;28;20425;-51
2023/01/08 13:49:01;;;;;;;740.13;347.90;;;;;;;;;;4968884;28;20272;-50
2023/01/08 13:51:33;;;;;;;679.70;315.23;;;;;;;;;;4954574;28;20237;-50
2023/01/08 13:54:04;;;;;;;739.67;331.07;;;;;;;;;;4956572;28;20225;-48
2023/01/08 13:56:31;;;;;;;701.80;317.53;;;;;;;;;;4955143;28;20313;-50
2023/01/08 13:58:57;;;;;;;751.03;342.47;;;;;;;;;;4956731;28;20291;-50
2023/01/08 14:01:23;;;;;;;710.27;318.17;;;;;;;;;;4961992;28;20328;-48